createdAt,value
2018-08-20T00:01:43.555Z,56.55
2018-08-20T00:04:12.723Z,56.18
2018-08-20T00:06:51.024Z,56.36
2018-08-20T00:09:21.710Z,56.63
2018-08-20T00:11:50.827Z,56.67
2018-08-20T00:14:21.931Z,57.21
2018-08-20T00:16:51.067Z,57.19
2018-08-20T00:19:20.172Z,57.05
2018-08-20T00:21:49.430Z,57.02
2018-08-20T00:24:18.457Z,57.28
2018-08-20T00:26:47.578Z,57.44
2018-08-20T00:29:16.784Z,57.32
2018-08-20T00:31:46.102Z,57.18
2018-08-20T00:34:15.163Z,57.15
2018-08-20T00:36:46.013Z,57.26
2018-08-20T00:39:15.114Z,56.93
2018-08-20T00:41:44.654Z,57.08
2018-08-20T00:44:15.083Z,56.90
2018-08-20T00:46:45.403Z,56.66
2018-08-20T00:49:15.621Z,57.05
2018-08-20T00:51:44.932Z,56.94
2018-08-20T00:54:14.087Z,57.02
2018-08-20T00:56:43.147Z,56.99
2018-08-20T00:59:12.224Z,57.10
2018-08-20T01:01:41.271Z,57.33
2018-08-20T01:04:10.463Z,57.35
2018-08-20T01:06:39.551Z,57.30
2018-08-20T01:09:09.146Z,57.41
2018-08-20T01:11:38.421Z,57.25
2018-08-20T01:14:07.551Z,57.34
2018-08-20T01:16:36.607Z,57.50
2018-08-20T01:19:05.829Z,57.42
2018-08-20T01:21:34.935Z,57.68
2018-08-20T01:24:04.045Z,57.27
2018-08-20T01:26:33.129Z,57.61
2018-08-20T01:29:02.283Z,57.41
2018-08-20T01:31:31.430Z,57.54
2018-08-20T01:34:00.512Z,57.55
2018-08-20T01:36:29.618Z,57.54
2018-08-20T01:38:58.690Z,57.37
2018-08-20T01:41:28.015Z,57.62
2018-08-20T01:43:57.223Z,57.69
2018-08-20T01:46:26.303Z,57.28
2018-08-20T01:48:55.391Z,57.56
2018-08-20T01:51:24.451Z,57.48
2018-08-20T01:53:53.510Z,57.61
2018-08-20T01:56:22.591Z,57.22
2018-08-20T01:58:51.650Z,57.13
2018-08-20T02:01:20.787Z,57.50
2018-08-20T02:03:49.895Z,57.49
2018-08-20T02:06:19.160Z,57.52
2018-08-20T02:08:48.227Z,57.64
2018-08-20T02:11:17.279Z,57.51
2018-08-20T02:13:46.339Z,57.41
2018-08-20T02:16:15.459Z,57.21
2018-08-20T02:18:44.547Z,57.16
2018-08-20T02:21:13.646Z,57.39
2018-08-20T02:23:42.739Z,57.48
2018-08-20T02:26:11.815Z,57.47
2018-08-20T02:28:40.954Z,57.40
2018-08-20T02:31:10.172Z,57.52
2018-08-20T02:33:39.235Z,57.62
2018-08-20T02:36:08.351Z,57.65
2018-08-20T02:38:37.459Z,57.42
2018-08-20T02:41:06.561Z,57.63
2018-08-20T02:43:36.012Z,57.26
2018-08-20T02:46:05.085Z,57.73
2018-08-20T02:48:34.223Z,57.94
2018-08-20T02:51:03.300Z,58.11
2018-08-20T02:53:32.410Z,58.64
2018-08-20T02:56:01.595Z,58.29
2018-08-20T02:58:30.691Z,58.82
2018-08-20T03:00:59.780Z,59.22
2018-08-20T03:03:28.792Z,58.51
2018-08-20T03:05:57.976Z,58.64
2018-08-20T03:08:27.082Z,58.77
2018-08-20T03:10:56.168Z,58.62
2018-08-20T03:13:25.264Z,58.68
2018-08-20T03:15:54.377Z,58.68
2018-08-20T03:18:23.572Z,58.36
2018-08-20T03:20:52.777Z,58.81
2018-08-20T03:23:21.964Z,58.39
2018-08-20T03:25:51.179Z,58.49
2018-08-20T03:28:20.362Z,58.30
2018-08-20T03:30:49.564Z,58.40
2018-08-20T03:33:18.798Z,58.34
2018-08-20T03:35:48.069Z,58.47
2018-08-20T03:38:17.340Z,58.33
2018-08-20T03:40:46.468Z,58.50
2018-08-20T03:43:15.682Z,58.39
2018-08-20T03:45:44.750Z,57.97
2018-08-20T03:48:13.877Z,58.17
2018-08-20T03:50:43.044Z,58.43
2018-08-20T03:53:12.138Z,58.30
2018-08-20T03:55:41.221Z,58.11
2018-08-20T03:58:10.268Z,58.44
2018-08-20T04:00:39.418Z,58.40
2018-08-20T04:03:08.489Z,58.00
2018-08-20T04:05:37.605Z,58.21
2018-08-20T04:08:06.658Z,58.01
2018-08-20T04:10:35.715Z,57.85
2018-08-20T04:13:04.794Z,58.13
2018-08-20T04:15:33.970Z,57.94
2018-08-20T04:18:03.124Z,58.16
2018-08-20T04:20:32.183Z,58.28
2018-08-20T04:23:01.274Z,58.22
2018-08-20T04:25:30.379Z,58.18
2018-08-20T04:27:59.464Z,58.17
2018-08-20T04:30:28.534Z,57.85
2018-08-20T04:32:57.883Z,58.02
2018-08-20T04:35:27.042Z,58.00
2018-08-20T04:37:56.238Z,57.93
2018-08-20T04:40:25.397Z,57.77
2018-08-20T04:42:54.460Z,57.59
2018-08-20T04:45:23.554Z,57.25
2018-08-20T04:47:52.651Z,57.68
2018-08-20T04:50:22.031Z,57.55
2018-08-20T04:52:51.081Z,57.30
2018-08-20T04:55:20.276Z,57.12
2018-08-20T04:57:49.338Z,57.28
2018-08-20T05:00:18.409Z,57.09
2018-08-20T05:02:47.540Z,57.45
2018-08-20T05:05:16.656Z,57.48
2018-08-20T05:07:45.852Z,57.49
2018-08-20T05:10:15.225Z,57.52
2018-08-20T05:12:44.343Z,57.14
2018-08-20T05:15:13.444Z,57.06
2018-08-20T05:17:42.498Z,57.68
2018-08-20T05:20:11.630Z,57.32
2018-08-20T05:22:40.702Z,57.46
2018-08-20T05:25:09.850Z,57.33
2018-08-20T05:27:39.061Z,57.12
2018-08-20T05:30:08.684Z,57.27
2018-08-20T05:32:38.049Z,57.93
2018-08-20T05:35:07.431Z,58.08
2018-08-20T05:37:36.572Z,58.00
2018-08-20T05:40:05.860Z,57.78
2018-08-20T05:42:34.927Z,57.61
2018-08-20T05:45:04.140Z,57.50
2018-08-20T05:47:33.212Z,57.28
2018-08-20T05:50:02.318Z,57.30
2018-08-20T05:52:31.384Z,57.27
2018-08-20T05:55:00.714Z,57.25
2018-08-20T05:57:29.932Z,57.17
2018-08-20T05:59:59.109Z,56.76
2018-08-20T06:02:28.180Z,56.87
2018-08-20T06:04:57.248Z,56.58
2018-08-20T06:07:26.413Z,57.17
2018-08-20T06:09:55.454Z,57.05
2018-08-20T06:12:24.608Z,56.88
2018-08-20T06:14:53.675Z,56.96
2018-08-20T06:17:22.896Z,56.65
2018-08-20T06:19:51.973Z,56.77
2018-08-20T06:22:21.064Z,56.43
2018-08-20T06:24:50.315Z,56.38
2018-08-20T06:27:19.676Z,56.46
2018-08-20T06:29:48.891Z,56.66
2018-08-20T06:32:18.095Z,56.39
2018-08-20T06:34:47.158Z,56.29
2018-08-20T06:37:16.360Z,56.18
2018-08-20T06:39:45.563Z,56.21
2018-08-20T06:42:14.632Z,56.38
2018-08-20T06:44:43.747Z,55.97
2018-08-20T06:47:12.820Z,56.35
2018-08-20T06:49:41.872Z,55.92
2018-08-20T06:52:11.077Z,56.31
2018-08-20T06:54:40.237Z,56.30
2018-08-20T06:57:09.408Z,56.13
2018-08-20T06:59:38.523Z,56.42
2018-08-20T07:02:07.627Z,56.43
2018-08-20T07:04:36.720Z,56.03
2018-08-20T07:07:05.876Z,56.02
2018-08-20T07:09:35.043Z,56.23
2018-08-20T07:12:04.128Z,55.98
2018-08-20T07:14:33.191Z,56.00
2018-08-20T07:17:02.290Z,55.93
2018-08-20T07:19:31.516Z,56.03
2018-08-20T07:22:00.621Z,55.60
2018-08-20T07:24:29.693Z,55.97
2018-08-20T07:26:58.790Z,55.47
2018-08-20T07:29:38.176Z,55.77
2018-08-20T07:32:09.728Z,55.48
2018-08-20T07:34:40.787Z,55.41
2018-08-20T07:37:15.108Z,55.66
2018-08-20T07:39:45.540Z,55.77
2018-08-20T07:42:14.667Z,55.58
2018-08-20T07:44:44.597Z,55.08
2018-08-20T07:47:13.766Z,55.18
2018-08-20T07:49:42.881Z,55.37
2018-08-20T07:52:12.140Z,56.00
2018-08-20T07:54:41.431Z,55.55
2018-08-20T07:57:11.101Z,55.68
2018-08-20T07:59:45.613Z,55.29
2018-08-20T08:02:14.683Z,55.69
2018-08-20T08:04:43.792Z,55.27
2018-08-20T08:07:18.353Z,54.83
2018-08-20T08:09:47.504Z,54.48
2018-08-20T08:12:16.570Z,54.47
2018-08-20T08:14:45.919Z,54.43
2018-08-20T08:17:15.038Z,54.72
2018-08-20T08:19:44.288Z,54.70
2018-08-20T08:22:13.512Z,54.22
2018-08-20T08:24:42.603Z,53.90
2018-08-20T08:27:11.827Z,53.82
2018-08-20T08:29:41.024Z,53.23
2018-08-20T08:32:10.095Z,54.75
2018-08-20T08:34:39.197Z,55.82
2018-08-20T08:37:08.402Z,55.38
2018-08-20T08:39:37.611Z,55.15
2018-08-20T08:42:06.804Z,54.37
2018-08-20T08:44:35.881Z,54.34
2018-08-20T08:47:05.182Z,54.61
2018-08-20T08:49:34.275Z,54.63
2018-08-20T08:52:03.902Z,54.10
2018-08-20T08:54:33.105Z,53.93
2018-08-20T08:57:02.307Z,53.87
2018-08-20T08:59:31.359Z,54.14
2018-08-20T09:02:00.518Z,53.92
2018-08-20T09:04:30.459Z,53.80
2018-08-20T09:06:59.599Z,53.75
2018-08-20T09:09:28.712Z,53.51
2018-08-20T09:11:57.783Z,53.62
2018-08-20T09:14:26.884Z,53.79
2018-08-20T09:16:56.083Z,53.60
2018-08-20T09:19:25.294Z,54.13
2018-08-20T09:21:54.571Z,54.04
2018-08-20T09:24:24.316Z,53.70
2018-08-20T09:26:53.539Z,53.31
2018-08-20T09:29:22.692Z,53.11
2018-08-20T09:31:51.897Z,52.93
2018-08-20T09:34:21.054Z,52.50
2018-08-20T09:36:50.179Z,52.22
2018-08-20T09:39:19.404Z,52.50
2018-08-20T09:41:48.567Z,52.90
2018-08-20T09:44:17.675Z,52.66
2018-08-20T09:46:46.824Z,52.65
2018-08-20T09:49:16.054Z,52.70
2018-08-20T09:51:45.135Z,52.38
2018-08-20T09:54:14.264Z,52.21
2018-08-20T09:56:43.388Z,51.88
2018-08-20T09:59:12.671Z,51.86
2018-08-20T10:01:41.841Z,51.60
2018-08-20T10:04:10.949Z,51.62
2018-08-20T10:06:40.046Z,51.87
2018-08-20T10:09:09.267Z,51.69
2018-08-20T10:11:38.408Z,51.48
2018-08-20T10:14:07.527Z,51.29
2018-08-20T10:16:36.618Z,51.26
2018-08-20T10:19:06.064Z,50.93
2018-08-20T10:21:36.166Z,51.01
2018-08-20T10:24:05.248Z,50.89
2018-08-20T10:26:34.412Z,51.50
2018-08-20T10:29:03.516Z,51.22
2018-08-20T10:31:32.631Z,51.35
2018-08-20T10:34:02.220Z,51.26
2018-08-20T10:36:31.351Z,50.38
2018-08-20T10:39:00.527Z,50.17
2018-08-20T10:41:29.731Z,49.58
2018-08-20T10:43:58.938Z,49.10
2018-08-20T10:46:28.048Z,48.95
2018-08-20T10:48:58.319Z,49.06
2018-08-20T10:51:27.473Z,48.90
2018-08-20T10:53:56.572Z,48.25
2018-08-20T10:56:25.698Z,48.01
2018-08-20T10:58:54.940Z,47.88
2018-08-20T11:01:24.006Z,48.07
2018-08-20T11:03:56.119Z,47.47
2018-08-20T11:06:26.407Z,47.68
2018-08-20T11:08:55.656Z,47.47
2018-08-20T11:11:24.836Z,47.75
2018-08-20T11:13:54.053Z,48.14
2018-08-20T11:16:23.181Z,48.25
2018-08-20T11:18:52.367Z,47.53
2018-08-20T11:21:21.663Z,47.66
2018-08-20T11:23:50.897Z,47.40
2018-08-20T11:26:20.000Z,47.60
2018-08-20T11:28:49.082Z,47.28
2018-08-20T11:31:18.219Z,47.29
2018-08-20T11:33:47.290Z,47.43
2018-08-20T11:36:16.427Z,47.45
2018-08-20T11:38:45.497Z,47.12
2018-08-20T11:41:14.556Z,47.29
2018-08-20T11:43:43.858Z,47.07
2018-08-20T11:46:12.993Z,47.14
2018-08-20T11:48:42.051Z,46.15
2018-08-20T11:51:11.166Z,46.25
2018-08-20T11:53:40.264Z,45.66
2018-08-20T11:56:09.452Z,45.68
2018-08-20T11:58:38.593Z,45.75
2018-08-20T12:01:07.772Z,46.18
2018-08-20T12:03:36.925Z,46.92
2018-08-20T12:06:06.268Z,46.74
2018-08-20T12:08:35.474Z,46.75
2018-08-20T12:11:04.663Z,46.50
2018-08-20T12:13:33.868Z,46.85
2018-08-20T12:16:02.972Z,46.82
2018-08-20T12:18:32.166Z,46.42
2018-08-20T12:21:01.456Z,46.43
2018-08-20T12:23:30.540Z,46.14
2018-08-20T12:25:59.740Z,46.16
2018-08-20T12:28:28.869Z,46.13
2018-08-20T12:30:58.066Z,45.67
2018-08-20T12:33:27.267Z,46.17
2018-08-20T12:35:56.342Z,46.11
2018-08-20T12:38:25.458Z,46.15
2018-08-20T12:40:54.533Z,46.07
2018-08-20T12:43:23.588Z,46.20
2018-08-20T12:45:52.724Z,46.63
2018-08-20T12:48:21.794Z,47.06
2018-08-20T12:50:50.911Z,46.69
2018-08-20T12:53:19.968Z,47.39
2018-08-20T12:55:49.010Z,46.91
2018-08-20T12:58:18.113Z,46.48
2018-08-20T13:00:47.290Z,46.76
2018-08-20T13:03:16.612Z,46.93
2018-08-20T13:05:45.755Z,46.59
2018-08-20T13:08:14.880Z,46.03
2018-08-20T13:10:43.952Z,46.54
2018-08-20T13:13:13.022Z,46.70
2018-08-20T13:15:42.219Z,46.35
2018-08-20T13:18:11.540Z,45.87
2018-08-20T13:20:40.688Z,46.38
2018-08-20T13:23:09.783Z,46.52
2018-08-20T13:25:38.862Z,46.00
2018-08-20T13:28:07.988Z,45.63
2018-08-20T13:30:37.109Z,45.06
2018-08-20T13:33:06.639Z,45.59
2018-08-20T13:35:35.853Z,45.46
2018-08-20T13:38:04.980Z,45.64
2018-08-20T13:40:34.264Z,45.73
2018-08-20T13:43:03.335Z,45.64
2018-08-20T13:45:32.442Z,45.60
2018-08-20T13:48:01.492Z,45.11
2018-08-20T13:50:30.635Z,45.20
2018-08-20T13:52:59.754Z,45.65
2018-08-20T13:55:28.739Z,45.43
2018-08-20T13:57:57.826Z,45.30
2018-08-20T14:00:27.019Z,45.83
2018-08-20T14:02:56.079Z,45.73
2018-08-20T14:05:25.210Z,46.20
2018-08-20T14:07:54.388Z,45.99
2018-08-20T14:10:23.514Z,46.21
2018-08-20T14:12:52.558Z,46.34
2018-08-20T14:15:21.718Z,45.03
2018-08-20T14:17:56.120Z,45.34
2018-08-20T14:20:30.858Z,45.47
2018-08-20T14:22:59.972Z,45.92
2018-08-20T14:25:29.154Z,45.68
2018-08-20T14:27:58.260Z,46.00
2018-08-20T14:30:27.268Z,45.73
2018-08-20T14:32:56.494Z,45.53
2018-08-20T14:35:25.572Z,45.12
2018-08-20T14:37:54.627Z,44.87
2018-08-20T14:40:23.714Z,45.23
2018-08-20T14:42:52.802Z,44.52
2018-08-20T14:45:21.920Z,44.90
2018-08-20T14:47:51.140Z,44.87
2018-08-20T14:50:20.440Z,45.26
2018-08-20T14:52:49.483Z,45.06
2018-08-20T14:55:18.659Z,44.53
2018-08-20T14:57:53.328Z,44.86
2018-08-20T15:00:22.556Z,45.25
2018-08-20T15:02:51.606Z,44.96
2018-08-20T15:05:20.856Z,44.66
2018-08-20T15:07:49.913Z,44.69
2018-08-20T15:10:18.966Z,44.55
2018-08-20T15:12:48.118Z,45.10
2018-08-20T15:15:17.236Z,45.17
2018-08-20T15:17:46.504Z,45.19
2018-08-20T15:20:15.566Z,45.22
2018-08-20T15:22:44.695Z,45.74
2018-08-20T15:25:13.810Z,45.69
2018-08-20T15:27:43.017Z,45.90
2018-08-20T15:30:12.111Z,45.94
2018-08-20T15:32:41.202Z,45.91
2018-08-20T15:35:10.519Z,46.18
2018-08-20T15:37:39.559Z,46.40
2018-08-20T15:40:08.669Z,46.88
2018-08-20T15:42:37.738Z,46.71
2018-08-20T15:45:06.794Z,46.77
2018-08-20T15:47:35.907Z,46.70
2018-08-20T15:50:05.189Z,46.28
2018-08-20T15:52:34.378Z,46.35
2018-08-20T15:55:03.569Z,46.77
2018-08-20T15:57:32.771Z,46.45
2018-08-20T16:00:01.943Z,46.22
2018-08-20T16:02:31.063Z,46.71
2018-08-20T16:05:00.141Z,45.88
2018-08-20T16:07:29.347Z,46.57
2018-08-20T16:09:58.547Z,46.58
2018-08-20T16:12:27.744Z,46.56
2018-08-20T16:14:56.906Z,46.46
2018-08-20T16:17:26.051Z,46.50
2018-08-20T16:19:55.229Z,47.03
2018-08-20T16:22:24.446Z,46.65
2018-08-20T16:24:53.626Z,47.01
2018-08-20T16:27:22.854Z,47.00
2018-08-20T16:29:52.014Z,47.09
2018-08-20T16:32:21.098Z,47.03
2018-08-20T16:34:50.167Z,47.34
2018-08-20T16:37:19.229Z,47.44
2018-08-20T16:39:48.416Z,47.28
2018-08-20T16:42:17.556Z,47.63
2018-08-20T16:44:46.713Z,48.10
2018-08-20T16:47:15.896Z,47.89
2018-08-20T16:49:44.972Z,47.55
2018-08-20T16:52:14.062Z,47.96
2018-08-20T16:54:43.207Z,48.17
2018-08-20T16:57:12.367Z,47.06
2018-08-20T16:59:41.451Z,47.04
2018-08-20T17:02:14.400Z,47.20
2018-08-20T17:04:43.482Z,47.05
2018-08-20T17:07:12.594Z,46.33
2018-08-20T17:09:41.778Z,46.72
2018-08-20T17:12:10.854Z,46.39
2018-08-20T17:14:39.967Z,45.99
2018-08-20T17:17:09.155Z,45.97
2018-08-20T17:19:38.333Z,46.40
2018-08-20T17:22:07.661Z,46.65
2018-08-20T17:24:39.273Z,46.60
2018-08-20T17:27:08.926Z,46.61
2018-08-20T17:29:38.024Z,46.41
2018-08-20T17:32:08.195Z,46.29
2018-08-20T17:34:44.000Z,46.66
2018-08-20T17:37:13.171Z,46.71
2018-08-20T17:39:56.731Z,46.92
2018-08-20T17:42:27.596Z,47.06
2018-08-20T17:44:57.228Z,47.09
2018-08-20T17:47:27.294Z,47.43
2018-08-20T17:49:57.371Z,47.42
2018-08-20T17:52:29.987Z,47.44
2018-08-20T17:55:00.627Z,47.10
2018-08-20T17:57:30.012Z,46.85
2018-08-20T18:00:38.951Z,47.30
2018-08-20T18:03:14.443Z,47.48
2018-08-20T18:05:43.635Z,47.21
2018-08-20T18:08:12.801Z,46.96
2018-08-20T18:10:41.971Z,47.46
2018-08-20T18:13:11.079Z,47.48
2018-08-20T18:15:40.192Z,47.07
2018-08-20T18:18:09.279Z,47.48
2018-08-20T18:20:42.564Z,47.20
2018-08-20T18:23:11.665Z,46.94
2018-08-20T18:25:42.119Z,47.19
2018-08-20T18:28:11.288Z,47.52
2018-08-20T18:30:40.459Z,47.41
2018-08-20T18:33:09.583Z,47.68
2018-08-20T18:35:38.677Z,47.83
2018-08-20T18:38:07.894Z,47.79
2018-08-20T18:40:37.066Z,48.08
2018-08-20T18:43:06.527Z,48.26
2018-08-20T18:45:35.692Z,48.58
2018-08-20T18:48:04.893Z,48.19
2018-08-20T18:50:33.987Z,48.75
2018-08-20T18:53:03.079Z,48.44
2018-08-20T18:55:32.163Z,48.89
2018-08-20T18:58:01.277Z,49.66
2018-08-20T19:00:30.378Z,50.19
2018-08-20T19:03:00.537Z,50.37
2018-08-20T19:05:39.177Z,50.65
2018-08-20T19:08:12.444Z,51.13
2018-08-20T19:10:41.611Z,50.91
2018-08-20T19:13:10.788Z,50.77
2018-08-20T19:15:43.072Z,50.90
2018-08-20T19:18:14.492Z,51.51
2018-08-20T19:20:44.425Z,51.61
2018-08-20T19:23:13.483Z,51.20
2018-08-20T19:25:42.569Z,51.41
2018-08-20T19:28:17.108Z,51.25
2018-08-20T19:30:46.217Z,51.65
2018-08-20T19:33:20.515Z,51.57
2018-08-20T19:35:49.675Z,51.22
2018-08-20T19:38:19.078Z,51.33
2018-08-20T19:41:03.565Z,51.25
2018-08-20T19:43:39.041Z,51.51
2018-08-20T19:46:08.174Z,51.34
2018-08-20T19:48:37.274Z,51.52
2018-08-20T19:51:08.534Z,51.75
2018-08-20T19:53:39.383Z,51.83
2018-08-20T19:56:12.485Z,51.67
2018-08-20T19:58:43.582Z,52.46
2018-08-20T20:01:19.447Z,52.94
2018-08-20T20:03:49.891Z,52.68
2018-08-20T20:06:19.204Z,52.31
2018-08-20T20:08:48.361Z,52.10
2018-08-20T20:11:23.398Z,51.94
2018-08-20T20:13:53.825Z,52.04
2018-08-20T20:16:23.164Z,52.19
2018-08-20T20:18:52.668Z,52.00
2018-08-20T20:21:22.387Z,52.21
2018-08-20T20:23:51.752Z,52.09
2018-08-20T20:26:21.010Z,52.35
2018-08-20T20:28:50.224Z,52.17
2018-08-20T20:31:19.439Z,52.03
2018-08-20T20:33:48.664Z,52.23
2018-08-20T20:36:24.139Z,52.76
2018-08-20T20:38:53.326Z,52.89
2018-08-20T20:41:23.046Z,52.37
2018-08-20T20:43:52.485Z,52.48
2018-08-20T20:46:21.664Z,52.89
2018-08-20T20:48:50.830Z,52.54
2018-08-20T20:51:19.874Z,52.88
2018-08-20T20:53:49.232Z,52.76
2018-08-20T20:56:18.390Z,52.94
2018-08-20T20:58:47.468Z,52.75
2018-08-20T21:01:16.687Z,52.90
2018-08-20T21:03:45.920Z,53.10
2018-08-20T21:06:16.106Z,53.01
2018-08-20T21:08:50.940Z,52.96
2018-08-20T21:11:21.307Z,52.97
2018-08-20T21:13:50.580Z,52.63
2018-08-20T21:16:23.007Z,52.64
2018-08-20T21:18:55.437Z,53.04
2018-08-20T21:21:25.271Z,52.54
2018-08-20T21:23:56.440Z,52.64
2018-08-20T21:26:25.536Z,52.68
2018-08-20T21:28:55.257Z,52.53
2018-08-20T21:31:25.538Z,52.45
2018-08-20T21:33:55.780Z,52.40
2018-08-20T21:36:24.876Z,52.25
2018-08-20T21:38:53.995Z,52.44
2018-08-20T21:41:24.760Z,52.82
2018-08-20T21:43:54.190Z,53.21
2018-08-20T21:46:23.383Z,53.06
2018-08-20T21:48:52.777Z,52.91
2018-08-20T21:51:26.681Z,52.91
2018-08-20T21:53:55.868Z,52.62
2018-08-20T21:56:25.321Z,53.04
2018-08-20T21:58:54.419Z,53.08
2018-08-20T22:01:23.572Z,53.16
2018-08-20T22:03:52.778Z,52.91
2018-08-20T22:06:22.020Z,52.55
2018-08-20T22:08:51.136Z,52.84
2018-08-20T22:11:20.354Z,52.88
2018-08-20T22:13:49.407Z,52.51
2018-08-20T22:16:21.135Z,53.07
2018-08-20T22:18:53.727Z,52.85
2018-08-20T22:21:22.964Z,53.03
2018-08-20T22:23:52.678Z,53.02
2018-08-20T22:26:22.043Z,52.83
2018-08-20T22:28:51.843Z,52.72
2018-08-20T22:31:21.252Z,52.81
2018-08-20T22:33:56.763Z,52.60
2018-08-20T22:36:26.595Z,52.70
2018-08-20T22:38:59.897Z,52.24
2018-08-20T22:41:30.019Z,52.26
2018-08-20T22:43:59.159Z,52.17
2018-08-20T22:46:28.247Z,52.56
2018-08-20T22:48:59.454Z,52.38
2018-08-20T22:51:29.377Z,52.40
2018-08-20T22:54:00.000Z,52.05
2018-08-20T22:56:36.378Z,52.11
2018-08-20T22:59:07.227Z,52.27
2018-08-20T23:01:36.376Z,52.19
2018-08-20T23:04:05.643Z,52.15
2018-08-20T23:06:34.727Z,52.36
2018-08-20T23:09:20.652Z,52.48
2018-08-20T23:11:49.691Z,52.70
2018-08-20T23:14:18.836Z,52.62
2018-08-20T23:16:50.054Z,52.81
2018-08-20T23:19:19.441Z,52.98
2018-08-20T23:21:49.347Z,53.26
2018-08-20T23:24:18.443Z,53.30
2018-08-20T23:26:47.500Z,53.41
2018-08-20T23:29:16.566Z,53.57
2018-08-20T23:31:45.672Z,53.37
2018-08-20T23:34:15.627Z,53.42
2018-08-20T23:36:44.709Z,53.47
2018-08-20T23:39:16.103Z,53.87
2018-08-20T23:41:45.420Z,53.69
2018-08-20T23:44:15.756Z,53.56
2018-08-20T23:46:47.705Z,53.59
2018-08-20T23:49:16.812Z,53.30
2018-08-20T23:51:46.035Z,53.40
2018-08-20T23:54:15.107Z,53.15
2018-08-20T23:56:44.187Z,53.37
2018-08-20T23:59:13.305Z,53.34
